createdAt,value
2023-01-13T00:01:47.830Z,-1.11
2023-01-13T00:04:35.615Z,-1.09
2023-01-13T00:07:20.973Z,-1.16
2023-01-13T00:10:11.659Z,-1.11
2023-01-13T00:12:56.867Z,-1.17
2023-01-13T00:15:42.176Z,-1.20
2023-01-13T00:18:27.715Z,-1.23
2023-01-13T00:21:15.938Z,-1.29
2023-01-13T00:24:01.627Z,-1.24
2023-01-13T00:26:47.004Z,-1.16
2023-01-13T00:29:32.177Z,-0.99
2023-01-13T00:32:17.432Z,-1.06
2023-01-13T00:35:02.450Z,-1.18
2023-01-13T00:37:47.786Z,-1.11
2023-01-13T00:40:33.158Z,-1.05
2023-01-13T00:43:24.014Z,-1.29
2023-01-13T00:46:10.902Z,-1.41
2023-01-13T00:48:56.207Z,-1.30
2023-01-13T00:51:41.371Z,-1.37
2023-01-13T00:54:26.721Z,-1.43
2023-01-13T00:57:12.013Z,-1.48
2023-01-13T00:59:59.187Z,-1.50
2023-01-13T01:02:44.545Z,-1.55
2023-01-13T01:05:30.212Z,-1.61
2023-01-13T01:08:15.351Z,-1.53
2023-01-13T01:11:02.535Z,-1.50
2023-01-13T01:13:49.472Z,-1.40
2023-01-13T01:16:35.194Z,-1.47
2023-01-13T01:19:20.637Z,-1.48
2023-01-13T01:22:05.893Z,-1.46
2023-01-13T01:24:51.365Z,-1.46
2023-01-13T01:27:36.675Z,-1.55
2023-01-13T01:30:27.741Z,-1.54
2023-01-13T01:33:16.792Z,-1.35
2023-01-13T01:36:03.102Z,-1.25
2023-01-13T01:38:49.176Z,-1.13
2023-01-13T01:41:35.711Z,-1.12
2023-01-13T01:44:42.863Z,-1.17
2023-01-13T01:47:29.960Z,-1.14
2023-01-13T01:50:15.861Z,-1.23
2023-01-13T01:53:13.189Z,-1.32
2023-01-13T01:55:59.753Z,-1.43
2023-01-13T01:58:52.256Z,-1.27
2023-01-13T02:01:38.633Z,-1.23
2023-01-13T02:04:28.197Z,-1.22
2023-01-13T02:07:13.718Z,-1.24
2023-01-13T02:10:01.929Z,-1.23
2023-01-13T02:12:48.254Z,-1.19
2023-01-13T02:15:50.093Z,-1.21
2023-01-13T02:18:48.709Z,-1.30
2023-01-13T02:22:00.781Z,-1.46
2023-01-13T02:25:01.526Z,-1.34
2023-01-13T02:27:59.165Z,-1.36
2023-01-13T02:31:05.974Z,-1.41
2023-01-13T02:33:54.256Z,-1.43
2023-01-13T02:36:50.593Z,-1.45
2023-01-13T02:39:57.437Z,-1.42
2023-01-13T02:43:36.828Z,-1.56
2023-01-13T02:46:28.402Z,-1.71
2023-01-13T02:49:19.727Z,-1.48
2023-01-13T02:52:16.008Z,-1.48
2023-01-13T02:55:30.959Z,-1.63
2023-01-13T02:58:19.105Z,-1.53
2023-01-13T03:01:04.374Z,-1.68
2023-01-13T03:03:50.141Z,-1.53
2023-01-13T03:07:12.928Z,-1.49
2023-01-13T03:10:19.325Z,-1.46
2023-01-13T03:13:42.320Z,-1.54
2023-01-13T03:16:31.509Z,-1.65
2023-01-13T03:19:31.265Z,-1.74
2023-01-13T03:22:31.289Z,-1.68
2023-01-13T03:25:24.036Z,-1.57
2023-01-13T03:28:12.953Z,-1.68
2023-01-13T03:31:03.931Z,-1.68
2023-01-13T03:33:55.695Z,-1.70
2023-01-13T03:36:41.074Z,-1.58
2023-01-13T03:39:31.462Z,-1.65
2023-01-13T03:42:29.319Z,-1.73
2023-01-13T03:45:16.881Z,-1.50
2023-01-13T03:48:07.399Z,-1.50
2023-01-13T03:50:54.260Z,-1.47
2023-01-13T03:53:43.822Z,-1.42
2023-01-13T03:56:39.496Z,-1.20
2023-01-13T03:59:28.067Z,-1.36
2023-01-13T04:02:37.883Z,-1.25
2023-01-13T04:05:23.683Z,-1.34
2023-01-13T04:08:21.691Z,-1.37
2023-01-13T04:11:14.964Z,-1.34
2023-01-13T04:14:01.652Z,-1.21
2023-01-13T04:16:47.776Z,-1.13
2023-01-13T04:19:33.179Z,-1.13
2023-01-13T04:22:18.568Z,-1.08
2023-01-13T04:25:04.535Z,-1.09
2023-01-13T04:27:49.630Z,-0.95
2023-01-13T04:30:35.057Z,-0.83
2023-01-13T04:33:20.691Z,-0.62
2023-01-13T04:36:06.477Z,-0.65
2023-01-13T04:38:51.733Z,-0.38
2023-01-13T04:41:55.856Z,-0.32
2023-01-13T04:44:41.055Z,-0.22
2023-01-13T04:47:26.219Z,-0.17
2023-01-13T04:50:11.841Z,-0.23
2023-01-13T04:52:57.430Z,-0.16
2023-01-13T04:55:44.531Z,-0.22
2023-01-13T04:58:29.571Z,-0.16
2023-01-13T05:01:15.451Z,-0.26
2023-01-13T05:04:00.674Z,-0.28
2023-01-13T05:06:46.040Z,-0.24
2023-01-13T05:09:31.370Z,-0.21
2023-01-13T05:12:35.553Z,-0.09
2023-01-13T05:15:39.418Z,0.02
2023-01-13T05:18:25.488Z,0.24
2023-01-13T05:21:30.813Z,0.44
2023-01-13T05:24:34.446Z,0.50
2023-01-13T05:27:19.647Z,0.65
2023-01-13T05:30:06.384Z,0.81
2023-01-13T05:32:51.563Z,0.87
2023-01-13T05:35:41.011Z,0.68
2023-01-13T05:38:26.297Z,0.52
2023-01-13T05:41:30.669Z,0.47
2023-01-13T05:44:15.646Z,0.66
2023-01-13T05:47:01.412Z,0.73
2023-01-13T05:49:46.474Z,0.84
2023-01-13T05:52:32.584Z,1.02
2023-01-13T05:55:17.884Z,1.17
2023-01-13T05:58:03.627Z,1.23
2023-01-13T06:00:49.181Z,1.26
2023-01-13T06:03:35.962Z,1.25
2023-01-13T06:06:21.272Z,1.21
2023-01-13T06:09:06.641Z,1.21
2023-01-13T06:11:52.272Z,1.36
2023-01-13T06:14:40.392Z,1.47
2023-01-13T06:17:25.616Z,1.57
2023-01-13T06:20:13.362Z,1.63
2023-01-13T06:22:59.674Z,1.66
2023-01-13T06:25:47.443Z,1.64
2023-01-13T06:28:33.501Z,1.58
2023-01-13T06:31:19.174Z,1.53
2023-01-13T06:34:11.142Z,1.42
2023-01-13T06:36:56.764Z,1.47
2023-01-13T06:39:42.739Z,1.32
2023-01-13T06:42:49.064Z,1.57
2023-01-13T06:45:35.062Z,1.61
2023-01-13T06:48:24.449Z,1.70
2023-01-13T06:51:09.595Z,1.77
2023-01-13T06:53:54.889Z,1.74
2023-01-13T06:56:40.597Z,1.92
2023-01-13T06:59:31.198Z,1.87
2023-01-13T07:02:16.623Z,1.97
2023-01-13T07:05:01.766Z,2.01
2023-01-13T07:07:47.793Z,2.11
2023-01-13T07:10:33.946Z,2.26
2023-01-13T07:13:38.829Z,2.51
2023-01-13T07:16:25.881Z,3.21
2023-01-13T07:19:12.019Z,3.35
2023-01-13T07:21:57.159Z,3.26
2023-01-13T07:24:43.825Z,3.04
2023-01-13T07:27:29.541Z,3.25
2023-01-13T07:30:15.072Z,3.66
2023-01-13T07:33:00.408Z,4.95
2023-01-13T07:35:46.879Z,4.45
2023-01-13T07:38:33.986Z,5.60
2023-01-13T07:41:38.230Z,5.15
2023-01-13T07:44:27.960Z,4.44
2023-01-13T07:47:13.993Z,4.09
2023-01-13T07:49:59.820Z,3.90
2023-01-13T07:52:45.124Z,3.79
2023-01-13T07:55:30.431Z,3.73
2023-01-13T07:58:15.973Z,3.81
2023-01-13T08:01:07.938Z,3.94
2023-01-13T08:03:54.953Z,4.13
2023-01-13T08:06:41.517Z,4.33
2023-01-13T08:09:27.026Z,4.50
2023-01-13T08:12:30.886Z,4.73
2023-01-13T08:15:16.564Z,4.86
2023-01-13T08:18:02.108Z,4.91
2023-01-13T08:20:48.857Z,5.13
2023-01-13T08:26:19.527Z,5.13
2023-01-13T08:29:04.656Z,5.43
2023-01-13T08:31:50.125Z,5.80
2023-01-13T08:34:36.168Z,5.80
2023-01-13T08:37:21.364Z,5.79
2023-01-13T08:40:13.545Z,5.92
2023-01-13T08:42:59.706Z,5.82
2023-01-13T08:45:45.053Z,5.72
2023-01-13T08:48:31.833Z,5.48
2023-01-13T08:51:17.593Z,5.37
2023-01-13T08:54:03.378Z,5.44
2023-01-13T08:56:49.044Z,5.40
2023-01-13T08:59:34.998Z,5.28
2023-01-13T09:02:22.324Z,5.42
2023-01-13T09:05:08.396Z,5.26
2023-01-13T09:07:53.632Z,5.12
2023-01-13T09:10:40.597Z,5.16
2023-01-13T09:13:26.114Z,5.31
2023-01-13T09:16:11.433Z,5.36
2023-01-13T09:18:56.840Z,5.38
2023-01-13T09:21:42.731Z,5.28
2023-01-13T09:24:28.219Z,5.51
2023-01-13T09:27:15.217Z,5.67
2023-01-13T09:30:00.487Z,5.69
2023-01-13T09:32:45.872Z,5.97
2023-01-13T09:35:31.217Z,6.26
2023-01-13T09:38:17.293Z,6.48
2023-01-13T09:41:23.099Z,6.76
2023-01-13T09:44:14.616Z,7.03
2023-01-13T09:47:04.302Z,7.35
2023-01-13T09:49:50.884Z,7.42
2023-01-13T09:52:36.804Z,7.74
2023-01-13T09:55:36.950Z,9.08
2023-01-13T09:58:22.911Z,13.82
2023-01-13T10:01:23.679Z,14.91
2023-01-13T10:04:13.491Z,13.58
2023-01-13T10:07:03.095Z,13.77
2023-01-13T10:09:52.951Z,13.25
2023-01-13T10:12:57.203Z,12.43
2023-01-13T10:16:26.523Z,12.63
2023-01-13T10:19:34.994Z,16.49
2023-01-13T10:22:46.045Z,17.19
2023-01-13T10:25:54.080Z,14.30
2023-01-13T10:28:39.985Z,14.17
2023-01-13T10:31:26.205Z,14.92
2023-01-13T10:34:12.085Z,18.71
2023-01-13T10:37:08.352Z,22.10
2023-01-13T10:39:57.870Z,24.34
2023-01-13T10:42:43.481Z,22.76
2023-01-13T10:45:28.842Z,25.25
2023-01-13T10:48:17.249Z,25.84
2023-01-13T10:51:18.900Z,26.95
2023-01-13T10:54:23.050Z,27.65
2023-01-13T10:57:23.315Z,26.14
2023-01-13T11:00:26.436Z,25.90
2023-01-13T11:03:19.067Z,23.88
2023-01-13T11:06:04.806Z,21.38
2023-01-13T11:08:55.253Z,18.91
2023-01-13T11:11:43.391Z,17.00
2023-01-13T11:14:45.232Z,15.35
2023-01-13T11:18:00.472Z,14.71
2023-01-13T11:20:47.944Z,15.54
2023-01-13T11:23:41.781Z,15.25
2023-01-13T11:26:40.909Z,15.64
2023-01-13T11:29:43.124Z,17.54
2023-01-13T11:32:31.749Z,18.03
2023-01-13T11:35:18.965Z,17.80
2023-01-13T11:38:28.764Z,17.96
2023-01-13T11:41:21.542Z,21.07
2023-01-13T11:44:09.927Z,23.42
2023-01-13T11:46:55.268Z,25.30
2023-01-13T11:49:41.085Z,26.25
2023-01-13T11:53:01.675Z,27.36
2023-01-13T11:55:54.587Z,23.41
2023-01-13T11:59:14.312Z,20.01
2023-01-13T12:02:14.860Z,16.33
2023-01-13T12:05:26.796Z,14.86
2023-01-13T12:08:35.748Z,13.72
2023-01-13T12:12:02.490Z,12.72
2023-01-13T12:14:58.399Z,11.71
2023-01-13T12:18:20.939Z,11.37
2023-01-13T12:21:18.679Z,11.21
2023-01-13T12:24:19.096Z,10.68
2023-01-13T12:27:11.967Z,10.72
2023-01-13T12:29:59.802Z,11.04
